Time;durP1;ratioP1;P1;durP2;ratioP2;P2;SDS_P1;SDS_P2;PMS_P1;PMS_P2;Temp;Humidity;BMP_temperature;BMP_pressure;BME280_temperature;BME280_humidity;BME280_pressure;Samples;Min_cycle;Max_cycle;Signal;HPM_P1;HPM_P2
2023/09/20 00:00:24;0.00;0.00;0.62;0.00;0.00;0.62;2.30;1.80;;;28.00;27.00;;;;;;2268131;61;20390;-49
2023/09/20 00:03:10;0.00;0.00;0.62;0.00;0.00;0.62;3.00;2.03;;;28.10;27.10;;;;;;2268271;61;20387;-55
2023/09/20 00:05:55;0.00;0.00;0.62;0.00;0.00;0.62;2.70;1.50;;;28.00;27.10;;;;;;2268486;61;20359;-52
2023/09/20 00:08:39;0.00;0.00;0.62;0.00;0.00;0.62;3.60;2.10;;;28.00;27.10;;;;;;2267984;61;20443;-51
2023/09/20 00:11:23;0.00;0.00;0.62;0.00;0.00;0.62;2.50;1.60;;;28.10;27.10;;;;;;2268230;61;20390;-53
2023/09/20 00:14:08;0.00;0.00;0.62;0.00;0.00;0.62;3.47;1.50;;;28.10;27.10;;;;;;2268604;61;20363;-54
2023/09/20 00:16:52;0.00;0.00;0.62;0.00;0.00;0.62;3.37;1.80;;;28.00;27.10;;;;;;2268340;61;20359;-51
2023/09/20 00:19:42;0.00;0.00;0.62;0.00;0.00;0.62;2.63;1.80;;;28.00;27.10;;;;;;2267742;61;20424;-58
2023/09/20 00:22:27;0.00;0.00;0.62;0.00;0.00;0.62;3.50;1.57;;;28.00;27.10;;;;;;2268954;61;20809;-53
2023/09/20 00:25:14;0.00;0.00;0.62;0.00;0.00;0.62;2.43;1.40;;;28.00;27.10;;;;;;2269257;61;20424;-60
2023/09/20 00:27:59;0.00;0.00;0.62;0.00;0.00;0.62;3.93;1.77;;;28.00;27.10;;;;;;2268702;61;20805;-52
2023/09/20 00:30:45;0.00;0.00;0.62;0.00;0.00;0.62;2.90;1.30;;;28.00;27.20;;;;;;2268955;61;20444;-51
2023/09/20 00:33:29;0.00;0.00;0.62;0.00;0.00;0.62;2.57;1.60;;;28.00;27.20;;;;;;2268941;61;20374;-52
2023/09/20 00:36:19;0.00;0.00;0.62;0.00;0.00;0.62;2.80;1.53;;;28.00;27.20;;;;;;2269132;61;20367;-54
2023/09/20 00:39:03;0.00;0.00;0.62;0.00;0.00;0.62;2.03;1.30;;;28.00;27.20;;;;;;2268859;61;20383;-52
2023/09/20 00:41:49;0.00;0.00;0.62;0.00;0.00;0.62;3.30;1.67;;;28.00;27.20;;;;;;2268503;61;20373;-54
2023/09/20 00:44:35;0.00;0.00;0.62;0.00;0.00;0.62;2.20;1.47;;;28.00;27.20;;;;;;2268680;61;20359;-52
2023/09/20 00:47:20;0.00;0.00;0.62;0.00;0.00;0.62;3.30;1.67;;;28.00;27.20;;;;;;2268687;61;20362;-53
2023/09/20 00:50:08;0.00;0.00;0.62;0.00;0.00;0.62;2.23;1.50;;;28.00;27.20;;;;;;2268521;61;20438;-50
2023/09/20 00:52:56;0.00;0.00;0.62;0.00;0.00;0.62;2.93;1.50;;;28.00;27.20;;;;;;2269138;61;20394;-53
2023/09/20 00:55:42;0.00;0.00;0.62;0.00;0.00;0.62;4.13;1.30;;;28.00;27.20;;;;;;2268898;61;20766;-53
2023/09/20 00:58:27;0.00;0.00;0.62;0.00;0.00;0.62;2.27;1.27;;;28.00;27.70;;;;;;2268715;61;20359;-55
2023/09/20 01:01:12;0.00;0.00;0.62;0.00;0.00;0.62;3.03;1.90;;;28.10;27.20;;;;;;2269042;61;20366;-52
2023/09/20 01:03:57;0.00;0.00;0.62;0.00;0.00;0.62;2.00;1.33;;;28.00;27.20;;;;;;2268938;61;20359;-52
2023/09/20 01:06:44;0.00;0.00;0.62;0.00;0.00;0.62;3.00;1.10;;;28.10;27.20;;;;;;2268812;61;20362;-53
2023/09/20 01:09:30;0.00;0.00;0.62;0.00;0.00;0.62;2.57;1.67;;;28.00;27.20;;;;;;2268662;61;20383;-54
2023/09/20 01:12:15;0.00;0.00;0.62;0.00;0.00;0.62;6.77;1.40;;;28.10;27.80;;;;;;2268418;61;20494;-57
2023/09/20 01:14:59;0.00;0.00;0.62;0.00;0.00;0.62;1.80;1.40;;;28.10;27.20;;;;;;2268988;61;20371;-55
2023/09/20 01:17:45;0.00;0.00;0.62;0.00;0.00;0.62;1.80;1.10;;;28.10;27.20;;;;;;2268821;61;20942;-51
2023/09/20 01:23:28;0.00;0.00;0.62;0.00;0.00;0.62;2.83;1.33;;;28.10;27.30;;;;;;2262533;61;20401;-56
2023/09/20 01:26:13;0.00;0.00;0.62;0.00;0.00;0.62;2.20;1.30;;;28.10;27.20;;;;;;2260832;61;20412;-49
2023/09/20 01:28:58;0.00;0.00;0.62;0.00;0.00;0.62;2.10;1.23;;;28.10;27.30;;;;;;2260315;61;20396;-53
2023/09/20 01:31:42;0.00;0.00;0.62;0.00;0.00;0.62;2.10;1.30;;;28.10;27.30;;;;;;2257264;61;20361;-55
2023/09/20 01:34:27;0.00;0.00;0.62;0.00;0.00;0.62;5.60;2.03;;;28.10;27.30;;;;;;2260953;61;20763;-51
2023/09/20 01:37:13;0.00;0.00;0.62;0.00;0.00;0.62;2.10;1.30;;;28.10;27.30;;;;;;2654950;45;20389;-51
2023/09/20 01:39:58;0.00;0.00;0.62;0.00;0.00;0.62;3.80;1.70;;;28.00;27.20;;;;;;2256325;61;20385;-56
2023/09/20 01:42:43;0.00;0.00;0.62;0.00;0.00;0.62;2.50;1.33;;;28.10;27.30;;;;;;2256532;61;20922;-55
2023/09/20 01:45:28;0.00;0.00;0.62;0.00;0.00;0.62;2.43;1.40;;;28.10;27.30;;;;;;2253705;61;20365;-54
2023/09/20 01:48:15;0.00;0.00;0.62;0.00;0.00;0.62;2.57;1.50;;;28.10;27.30;;;;;;2256279;61;20421;-52
2023/09/20 01:50:59;0.00;0.00;0.62;0.00;0.00;0.62;2.80;1.80;;;28.00;27.30;;;;;;2256670;61;20900;-54
2023/09/20 01:53:44;0.00;0.00;0.62;0.00;0.00;0.62;2.43;1.40;;;28.10;27.30;;;;;;2253825;61;20958;-57
2023/09/20 01:56:30;0.00;0.00;0.62;0.00;0.00;0.62;2.83;1.53;;;28.10;27.30;;;;;;2257596;61;20388;-54
2023/09/20 01:59:15;0.00;0.00;0.62;0.00;0.00;0.62;2.17;1.03;;;28.10;27.30;;;;;;2257113;61;20385;-51
2023/09/20 02:02:00;0.00;0.00;0.62;0.00;0.00;0.62;1.80;1.10;;;28.00;27.30;;;;;;2257205;61;20436;-54
2023/09/20 02:04:45;0.00;0.00;0.62;0.00;0.00;0.62;2.93;1.90;;;28.10;27.30;;;;;;2260700;61;20918;-56
2023/09/20 02:07:29;0.00;0.00;0.62;0.00;0.00;0.62;2.53;1.33;;;28.10;27.40;;;;;;2260833;61;20469;-53
2023/09/20 02:10:16;0.00;0.00;0.62;0.00;0.00;0.62;4.40;2.33;;;28.00;27.30;;;;;;2260346;61;20431;-56
2023/09/20 02:13:03;0.00;0.00;0.62;0.00;0.00;0.62;2.37;1.60;;;28.00;27.30;;;;;;2257450;61;20902;-55
2023/09/20 02:15:48;0.00;0.00;0.62;0.00;0.00;0.62;2.97;1.53;;;28.00;27.30;;;;;;2260675;61;20415;-52
2023/09/20 02:18:33;0.00;0.00;0.62;0.00;0.00;0.62;1.80;1.40;;;28.00;27.40;;;;;;2260170;61;20440;-52
2023/09/20 02:21:17;0.00;0.00;0.62;0.00;0.00;0.62;2.83;1.67;;;28.00;27.40;;;;;;2260837;61;20419;-52
2023/09/20 02:24:03;0.00;0.00;0.62;0.00;0.00;0.62;2.00;1.30;;;28.00;27.40;;;;;;2257142;61;20392;-59
2023/09/20 02:26:48;0.00;0.00;0.62;0.00;0.00;0.62;2.40;1.63;;;28.00;27.40;;;;;;2260619;61;20408;-52
2023/09/20 02:29:35;0.00;0.00;0.62;0.00;0.00;0.62;3.10;1.80;;;28.00;27.40;;;;;;2256944;61;20384;-53
2023/09/20 02:32:20;0.00;0.00;0.62;0.00;0.00;0.62;2.47;1.63;;;28.00;27.40;;;;;;2260167;61;20419;-52
2023/09/20 02:35:06;0.00;0.00;0.62;0.00;0.00;0.62;2.80;1.90;;;28.00;27.40;;;;;;2260696;61;20967;-50
2023/09/20 02:37:53;0.00;0.00;0.62;0.00;0.00;0.62;2.20;1.47;;;28.00;27.40;;;;;;2260189;61;20365;-56
2023/09/20 02:40:38;0.00;0.00;0.62;0.00;0.00;0.62;3.10;1.40;;;28.00;27.50;;;;;;2257176;61;20384;-56
2023/09/20 02:43:24;0.00;0.00;0.62;0.00;0.00;0.62;3.53;1.60;;;28.00;27.40;;;;;;2257383;61;20463;-55
2023/09/20 02:46:09;0.00;0.00;0.62;0.00;0.00;0.62;2.60;1.30;;;28.00;27.40;;;;;;2260363;61;20438;-56
2023/09/20 02:48:54;0.00;0.00;0.62;0.00;0.00;0.62;3.50;1.70;;;28.00;27.50;;;;;;2259969;61;20396;-53
2023/09/20 02:51:38;0.00;0.00;0.62;0.00;0.00;0.62;2.73;1.50;;;28.00;27.50;;;;;;2260750;61;20396;-51
2023/09/20 02:54:25;0.00;0.00;0.62;0.00;0.00;0.62;2.53;1.43;;;28.00;27.50;;;;;;2257209;61;20365;-50
2023/09/20 02:57:10;0.00;0.00;0.62;0.00;0.00;0.62;4.57;2.03;;;28.00;27.50;;;;;;2260529;61;20408;-54
2023/09/20 02:59:57;0.00;0.00;0.62;0.00;0.00;0.62;3.90;1.50;;;28.00;27.50;;;;;;2260402;61;20412;-51
2023/09/20 03:02:45;0.00;0.00;0.62;0.00;0.00;0.62;2.67;1.63;;;28.00;27.50;;;;;;2260430;61;20426;-54
2023/09/20 03:05:32;0.00;0.00;0.62;0.00;0.00;0.62;3.03;1.60;;;28.00;27.50;;;;;;2257391;61;20371;-51
2023/09/20 03:08:19;0.00;0.00;0.62;0.00;0.00;0.62;2.80;1.20;;;28.00;27.60;;;;;;2256856;61;20376;-54
2023/09/20 03:11:03;0.00;0.00;0.62;0.00;0.00;0.62;2.97;1.60;;;28.00;27.50;;;;;;2260574;61;20779;-58
2023/09/20 03:13:48;0.00;0.00;0.62;0.00;0.00;0.62;2.20;1.50;;;27.90;27.50;;;;;;2260437;61;20811;-55
2023/09/20 03:16:34;0.00;0.00;0.62;0.00;0.00;0.62;2.70;1.70;;;28.00;27.60;;;;;;2257103;61;20357;-53
2023/09/20 03:19:22;0.00;0.00;0.62;0.00;0.00;0.62;4.20;1.40;;;28.00;27.60;;;;;;2256992;61;20392;-55
2023/09/20 03:22:08;0.00;0.00;0.62;0.00;0.00;0.62;4.13;1.80;;;28.00;27.60;;;;;;2257269;61;20960;-48
2023/09/20 03:24:53;0.00;0.00;0.62;0.00;0.00;0.62;2.30;1.33;;;28.00;27.60;;;;;;2257158;61;20949;-55
2023/09/20 03:27:40;0.00;0.00;0.62;0.00;0.00;0.62;1.93;1.40;;;28.00;27.60;;;;;;2257387;61;20364;-51
2023/09/20 03:30:28;0.00;0.00;0.62;0.00;0.00;0.62;4.17;1.60;;;28.00;27.60;;;;;;2256913;61;20392;-63
2023/09/20 03:33:13;0.00;0.00;0.62;0.00;0.00;0.62;2.13;1.40;;;28.00;27.60;;;;;;2257291;61;20891;-48
2023/09/20 03:36:09;0.00;0.00;0.62;0.00;0.00;0.62;2.80;1.50;;;28.00;27.60;;;;;;2257334;61;20368;-52
2023/09/20 03:38:57;0.00;0.00;0.62;0.00;0.00;0.62;3.07;2.10;;;27.90;27.60;;;;;;2256674;61;22213;-57
2023/09/20 03:41:42;0.00;0.00;0.62;0.00;0.00;0.62;2.67;1.70;;;28.00;27.70;;;;;;2257429;61;20911;-53
2023/09/20 03:44:28;0.00;0.00;0.62;0.00;0.00;0.62;3.20;1.50;;;28.00;27.70;;;;;;2257294;61;20364;-55
2023/09/20 03:47:12;0.00;0.00;0.62;0.00;0.00;0.62;2.27;1.37;;;27.90;27.60;;;;;;2256913;61;20397;-51
2023/09/20 03:49:57;0.00;0.00;0.62;0.00;0.00;0.62;2.30;1.40;;;27.90;27.70;;;;;;2256882;61;20385;-54
2023/09/20 03:52:43;0.00;0.00;0.62;0.00;0.00;0.62;2.33;1.60;;;27.90;27.70;;;;;;2256904;61;20495;-56
2023/09/20 03:55:28;0.00;0.00;0.62;0.00;0.00;0.62;3.50;2.00;;;27.90;27.70;;;;;;2257405;61;20909;-51
2023/09/20 03:58:13;0.00;0.00;0.62;0.00;0.00;0.62;2.73;1.37;;;28.00;27.70;;;;;;2257602;61;20368;-51
2023/09/20 04:00:57;0.00;0.00;0.62;0.00;0.00;0.62;2.47;1.60;;;28.00;27.70;;;;;;2260840;61;20409;-59
2023/09/20 04:03:42;0.00;0.00;0.62;0.00;0.00;0.62;4.07;1.70;;;27.90;27.70;;;;;;2261074;61;20381;-56
2023/09/20 04:06:29;0.00;0.00;0.62;0.00;0.00;0.62;2.60;1.90;;;27.90;27.70;;;;;;2261093;61;20360;-53
2023/09/20 04:09:17;0.00;0.00;0.62;0.00;0.00;0.62;3.27;2.10;;;27.90;27.70;;;;;;2268456;56;21705;-51
2023/09/20 04:12:03;0.00;0.00;0.62;0.00;0.00;0.62;3.63;2.27;;;27.90;27.70;;;;;;2249700;61;20362;-55
2023/09/20 04:14:48;0.00;0.00;0.62;0.00;0.00;0.62;2.53;1.80;;;28.00;27.80;;;;;;2252856;61;20366;-51
2023/09/20 04:17:32;0.00;0.00;0.62;0.00;0.00;0.62;3.20;1.83;;;27.90;27.70;;;;;;2252971;61;20776;-52
2023/09/20 04:20:20;0.00;0.00;0.62;0.00;0.00;0.62;3.20;2.07;;;27.90;27.80;;;;;;2252480;61;20470;-52
2023/09/20 04:23:06;0.00;0.00;0.62;0.00;0.00;0.62;2.30;1.70;;;27.90;27.80;;;;;;2249348;61;20406;-53
2023/09/20 04:25:52;0.00;0.00;0.62;0.00;0.00;0.62;3.53;2.07;;;27.90;27.80;;;;;;2249872;61;20398;-55
2023/09/20 04:28:36;0.00;0.00;0.62;0.00;0.00;0.62;3.70;2.23;;;27.90;27.80;;;;;;2249290;61;20413;-57
2023/09/20 04:31:20;0.00;0.00;0.62;0.00;0.00;0.62;3.17;2.33;;;27.90;27.80;;;;;;2252628;61;20402;-51
2023/09/20 04:34:05;0.00;0.00;0.62;0.00;0.00;0.62;2.60;2.03;;;27.90;27.80;;;;;;2249896;61;20894;-51
2023/09/20 04:36:53;0.00;0.00;0.62;0.00;0.00;0.62;2.77;2.13;;;27.90;27.80;;;;;;2249778;61;20833;-54
2023/09/20 04:39:38;0.00;0.00;0.62;0.00;0.00;0.62;3.47;1.80;;;27.90;27.80;;;;;;2252424;61;20390;-49
2023/09/20 04:42:24;0.00;0.00;0.62;0.00;0.00;0.62;3.50;1.90;;;27.90;27.80;;;;;;2249933;61;20797;-59
2023/09/20 04:45:12;0.00;0.00;0.62;0.00;0.00;0.62;3.27;2.10;;;27.90;27.80;;;;;;2249824;61;20444;-59
2023/09/20 04:47:57;0.00;0.00;0.62;0.00;0.00;0.62;4.50;2.00;;;28.00;27.90;;;;;;2249407;61;20375;-60
2023/09/20 04:50:42;0.00;0.00;0.62;0.00;0.00;0.62;2.00;1.70;;;27.90;27.90;;;;;;2252800;61;20437;-53
2023/09/20 04:53:27;0.00;0.00;0.62;0.00;0.00;0.62;2.87;2.07;;;27.90;27.90;;;;;;2249617;61;20433;-54
2023/09/20 04:56:11;0.00;0.00;0.62;0.00;0.00;0.62;3.57;2.40;;;27.90;27.90;;;;;;2252916;61;20362;-51
2023/09/20 04:58:57;0.00;0.00;0.62;0.00;0.00;0.62;2.90;2.10;;;27.90;27.90;;;;;;2252718;61;20407;-53
2023/09/20 05:01:42;0.00;0.00;0.62;0.00;0.00;0.62;3.00;2.00;;;27.90;27.90;;;;;;2249621;61;20363;-51
2023/09/20 05:04:27;0.00;0.00;0.62;0.00;0.00;0.62;5.40;2.37;;;27.90;27.90;;;;;;2253031;61;20502;-60
2023/09/20 05:07:11;0.00;0.00;0.62;0.00;0.00;0.62;2.67;1.83;;;27.90;27.90;;;;;;2252497;61;20455;-55
2023/09/20 05:10:06;0.00;0.00;0.62;0.00;0.00;0.62;2.13;1.40;;;27.90;27.90;;;;;;2285240;56;20511;-62
2023/09/20 05:12:51;0.00;0.00;0.62;0.00;0.00;0.62;2.93;2.23;;;27.90;27.90;;;;;;2253917;61;20390;-51
2023/09/20 05:15:38;0.00;0.00;0.62;0.00;0.00;0.62;2.90;1.60;;;27.90;27.90;;;;;;2249414;61;20367;-52
2023/09/20 05:18:26;0.00;0.00;0.62;0.00;0.00;0.62;2.50;1.87;;;27.90;27.90;;;;;;2249519;61;20406;-54
2023/09/20 05:21:10;0.00;0.00;0.62;0.00;0.00;0.62;2.47;1.67;;;27.90;27.90;;;;;;2245687;61;20414;-52
2023/09/20 05:23:55;0.00;0.00;0.62;0.00;0.00;0.62;2.83;1.83;;;27.90;28.00;;;;;;2245463;61;20471;-54
2023/09/20 05:26:39;0.00;0.00;0.62;0.00;0.00;0.62;3.57;2.07;;;27.90;28.00;;;;;;2248768;61;20372;-52
2023/09/20 05:29:24;0.00;0.00;0.62;0.00;0.00;0.62;2.63;1.80;;;27.90;28.00;;;;;;2258410;56;20436;-53
2023/09/20 05:32:11;0.00;0.00;0.62;0.00;0.00;0.62;3.53;1.80;;;27.90;28.00;;;;;;2256674;61;20373;-54
2023/09/20 05:34:56;0.00;0.00;0.62;0.00;0.00;0.62;2.50;1.67;;;27.90;28.00;;;;;;2256771;61;20448;-56
2023/09/20 05:37:40;0.00;0.00;0.62;0.00;0.00;0.62;2.20;1.80;;;27.90;28.00;;;;;;2256595;61;20397;-57
2023/09/20 05:40:28;0.00;0.00;0.62;0.00;0.00;0.62;2.50;1.50;;;27.90;28.00;;;;;;2256667;61;20444;-54
2023/09/20 05:43:13;0.00;0.00;0.62;0.00;0.00;0.62;2.60;1.80;;;27.90;28.50;;;;;;2256683;61;20396;-51
2023/09/20 05:45:59;0.00;0.00;0.62;0.00;0.00;0.62;3.20;2.00;;;27.90;28.00;;;;;;2256558;61;20809;-54
2023/09/20 05:48:46;0.00;0.00;0.62;0.00;0.00;0.62;3.40;1.97;;;27.90;28.00;;;;;;2256436;61;20449;-55
2023/09/20 05:51:31;0.00;0.00;0.62;0.00;0.00;0.62;3.47;2.47;;;27.90;28.00;;;;;;2256390;61;20381;-53
2023/09/20 05:54:17;0.00;0.00;0.62;0.00;0.00;0.62;3.47;2.23;;;27.90;28.00;;;;;;2256816;61;20370;-62
2023/09/20 05:57:03;0.00;0.00;0.62;0.00;0.00;0.62;2.97;1.87;;;27.90;28.00;;;;;;2256759;61;20454;-53
2023/09/20 05:59:48;0.00;0.00;0.62;0.00;0.00;0.62;4.13;2.60;;;27.90;28.00;;;;;;2256573;61;20416;-57
2023/09/20 06:02:33;0.00;0.00;0.62;0.00;0.00;0.62;3.00;1.90;;;27.90;28.10;;;;;;2256746;61;20920;-60
2023/09/20 06:05:19;0.00;0.00;0.62;0.00;0.00;0.62;4.13;2.53;;;27.90;28.10;;;;;;2253422;61;20358;-51
2023/09/20 06:08:06;0.00;0.00;0.62;0.00;0.00;0.62;4.30;2.27;;;27.90;28.10;;;;;;2256116;61;20896;-52
2023/09/20 06:10:52;0.00;0.00;0.62;0.00;0.00;0.62;3.20;2.20;;;27.90;28.10;;;;;;2256486;61;20907;-53
2023/09/20 06:13:38;0.00;0.00;0.62;0.00;0.00;0.62;2.87;1.97;;;27.90;28.10;;;;;;2256353;61;20442;-56
2023/09/20 06:16:23;0.00;0.00;0.62;0.00;0.00;0.62;4.53;2.50;;;27.90;28.10;;;;;;2256568;61;20413;-55
2023/09/20 06:19:08;0.00;0.00;0.62;0.00;0.00;0.62;4.63;2.73;;;27.90;28.10;;;;;;2255962;61;20947;-52
2023/09/20 06:21:54;0.00;0.00;0.62;0.00;0.00;0.62;3.43;2.80;;;27.90;28.10;;;;;;2256532;61;20370;-53
2023/09/20 06:24:38;0.00;0.00;0.62;0.00;0.00;0.62;3.60;2.53;;;27.90;28.10;;;;;;2256666;61;20896;-53
2023/09/20 06:27:23;0.00;0.00;0.62;0.00;0.00;0.62;4.30;2.73;;;27.90;28.10;;;;;;2256685;61;20398;-55
2023/09/20 06:30:14;0.00;0.00;0.62;0.00;0.00;0.62;3.47;2.60;;;27.90;28.10;;;;;;2256004;61;20390;-56
2023/09/20 06:32:59;0.00;0.00;0.62;0.00;0.00;0.62;2.93;2.57;;;27.90;28.10;;;;;;2256753;61;20400;-54
2023/09/20 06:35:43;0.00;0.00;0.62;0.00;0.00;0.62;4.23;3.13;;;27.90;28.10;;;;;;2256282;61;20843;-55
2023/09/20 06:38:30;0.00;0.00;0.62;0.00;0.00;0.62;3.43;2.90;;;27.90;28.20;;;;;;2256353;61;20374;-51
2023/09/20 06:41:15;0.00;0.00;0.62;0.00;0.00;0.62;4.13;3.00;;;27.90;28.10;;;;;;2256658;61;20362;-49
2023/09/20 06:44:00;0.00;0.00;0.62;0.00;0.00;0.62;6.43;2.47;;;27.90;28.20;;;;;;2256009;61;20928;-54
2023/09/20 06:46:45;0.00;0.00;0.62;0.00;0.00;0.62;3.90;2.93;;;27.90;28.20;;;;;;2256648;61;20386;-52
2023/09/20 06:49:30;0.00;0.00;0.62;0.00;0.00;0.62;3.60;2.40;;;27.90;28.20;;;;;;2256072;61;20440;-54
2023/09/20 06:52:14;0.00;0.00;0.62;0.00;0.00;0.62;2.80;2.40;;;27.90;28.20;;;;;;2256143;61;20386;-58
2023/09/20 06:55:00;0.00;0.00;0.62;0.00;0.00;0.62;3.83;2.83;;;27.90;28.20;;;;;;2256616;61;20424;-53
2023/09/20 06:57:48;0.00;0.00;0.62;0.00;0.00;0.62;3.17;2.70;;;27.90;28.20;;;;;;2256296;61;20424;-53
2023/09/20 07:00:35;0.00;0.00;0.62;0.00;0.00;0.62;3.20;2.63;;;27.90;28.20;;;;;;2256644;61;20425;-51
2023/09/20 07:03:20;0.00;0.00;0.62;0.00;0.00;0.62;3.87;2.67;;;27.90;28.20;;;;;;2256461;61;20845;-52
2023/09/20 07:06:05;0.00;0.00;0.62;0.00;0.00;0.62;3.30;2.30;;;27.90;28.20;;;;;;2256571;61;20951;-51
2023/09/20 07:08:49;0.00;0.00;0.62;0.00;0.00;0.62;2.80;2.13;;;27.90;28.20;;;;;;2256052;61;20921;-51
2023/09/20 07:11:37;0.00;0.00;0.62;0.00;0.00;0.62;5.13;2.60;;;27.90;28.30;;;;;;2256724;61;20370;-54
2023/09/20 07:14:22;0.00;0.00;0.62;0.00;0.00;0.62;3.23;2.13;;;27.90;28.30;;;;;;2256261;61;20442;-55
2023/09/20 07:17:07;0.00;0.00;0.62;0.00;0.00;0.62;4.50;2.50;;;27.90;28.30;;;;;;2256561;61;20847;-57
2023/09/20 07:19:52;0.00;0.00;0.62;0.00;0.00;0.62;2.80;2.13;;;27.90;28.30;;;;;;2255783;61;20796;-57
2023/09/20 07:22:38;0.00;0.00;0.62;0.00;0.00;0.62;3.57;2.20;;;27.90;28.30;;;;;;2256532;61;20433;-53
2023/09/20 07:25:27;0.00;0.00;0.62;0.00;0.00;0.62;3.50;1.97;;;27.90;28.30;;;;;;2253345;61;20370;-52
2023/09/20 07:28:14;0.00;0.00;0.62;0.00;0.00;0.62;2.90;2.00;;;27.90;28.30;;;;;;2255780;61;20397;-57
2023/09/20 07:31:03;0.00;0.00;0.62;0.00;0.00;0.62;3.60;2.27;;;27.90;28.30;;;;;;2256411;61;21104;-54
2023/09/20 07:33:50;0.00;0.00;0.62;0.00;0.00;0.62;2.87;2.07;;;27.90;28.40;;;;;;2256680;61;20485;-52
2023/09/20 07:36:37;0.00;0.00;0.62;0.00;0.00;0.62;4.30;2.60;;;27.90;28.30;;;;;;2255908;61;20417;-52
2023/09/20 07:39:22;0.00;0.00;0.62;0.00;0.00;0.62;5.13;2.40;;;27.90;28.40;;;;;;2256128;61;20385;-54
2023/09/20 07:42:07;0.00;0.00;0.62;0.00;0.00;0.62;2.77;2.17;;;27.90;28.40;;;;;;2256071;61;20364;-52
2023/09/20 07:44:53;0.00;0.00;0.62;0.00;0.00;0.62;2.33;1.90;;;27.90;28.40;;;;;;2256479;61;20785;-53
2023/09/20 07:47:39;0.00;0.00;0.62;0.00;0.00;0.62;4.20;1.80;;;27.90;28.40;;;;;;2256399;61;20374;-53
2023/09/20 07:50:25;0.00;0.00;0.62;0.00;0.00;0.62;2.70;1.93;;;27.90;28.40;;;;;;2256402;61;20402;-51
2023/09/20 07:53:11;0.00;0.00;0.62;0.00;0.00;0.62;4.53;2.00;;;27.90;28.50;;;;;;2256367;61;20365;-51
2023/09/20 07:56:00;0.00;0.00;0.62;0.00;0.00;0.62;2.90;1.80;;;27.90;28.50;;;;;;2256397;61;20942;-55
2023/09/20 07:58:45;0.00;0.00;0.62;0.00;0.00;0.62;5.10;1.70;;;27.90;28.50;;;;;;2264544;56;20521;31
2023/09/20 08:01:32;0.00;0.00;0.62;0.00;0.00;0.62;3.23;1.90;;;27.90;28.50;;;;;;2249529;61;20382;-52
2023/09/20 08:04:17;0.00;0.00;0.62;0.00;0.00;0.62;4.23;2.10;;;28.00;28.60;;;;;;2248033;61;20446;-54
2023/09/20 08:07:03;0.00;0.00;0.62;0.00;0.00;0.62;2.63;1.60;;;28.00;28.60;;;;;;2248595;61;20386;-52
2023/09/20 08:09:48;0.00;0.00;0.62;0.00;0.00;0.62;2.67;1.70;;;28.00;28.60;;;;;;2247965;61;20383;-53
2023/09/20 08:12:33;0.00;0.00;0.62;0.00;0.00;0.62;2.33;1.90;;;28.00;28.60;;;;;;2248155;61;20375;-52
2023/09/20 08:15:17;0.00;0.00;0.62;0.00;0.00;0.62;2.30;1.80;;;28.00;28.60;;;;;;2248453;61;20395;-57
2023/09/20 08:21:07;0.00;0.00;0.62;0.00;0.00;0.62;3.13;1.90;;;28.00;28.60;;;;;;2248294;61;20375;-53
2023/09/20 09:00:58;0.00;0.00;0.62;0.00;0.00;0.62;3.13;1.80;;;28.10;29.00;;;;;;2248991;61;20386;-57
2023/09/20 09:03:44;0.00;0.00;0.62;0.00;0.00;0.62;4.17;1.97;;;28.10;29.00;;;;;;2248544;61;20482;-54
2023/09/20 09:06:30;0.00;0.00;0.62;0.00;0.00;0.62;2.53;2.00;;;28.10;29.00;;;;;;2248740;61;20376;-53
2023/09/20 09:09:15;0.00;0.00;0.62;0.00;0.00;0.62;2.70;1.60;;;28.10;29.00;;;;;;2248488;61;20949;-53
2023/09/20 09:12:00;0.00;0.00;0.62;0.00;0.00;0.62;2.80;1.63;;;28.10;29.50;;;;;;2248687;61;20372;-56
2023/09/20 09:14:47;0.00;0.00;0.62;0.00;0.00;0.62;1.80;1.40;;;28.10;29.00;;;;;;2248884;61;20380;-58
2023/09/20 09:17:38;0.00;0.00;0.62;0.00;0.00;0.62;3.03;1.80;;;28.10;29.10;;;;;;2249043;61;20763;-50
2023/09/20 09:20:29;0.00;0.00;0.62;0.00;0.00;0.62;2.20;1.63;;;28.10;29.10;;;;;;2248656;61;20384;-53
2023/09/20 09:23:33;0.00;0.00;0.62;0.00;0.00;0.62;2.77;1.27;;;28.10;29.10;;;;;;2248758;61;20980;-51
2023/09/20 09:26:18;0.00;0.00;0.62;0.00;0.00;0.62;2.30;1.50;;;28.10;29.10;;;;;;2248618;61;20419;-52
2023/09/20 09:29:03;0.00;0.00;0.62;0.00;0.00;0.62;3.30;1.47;;;28.20;29.20;;;;;;2248691;61;20394;-54
2023/09/20 09:31:49;0.00;0.00;0.62;0.00;0.00;0.62;1.60;1.20;;;28.20;29.20;;;;;;2248717;61;20367;-56
2023/09/20 09:34:34;0.00;0.00;0.62;0.00;0.00;0.62;2.77;1.40;;;28.20;29.20;;;;;;2248589;61;20360;-55
2023/09/20 09:37:20;0.00;0.00;0.62;0.00;0.00;0.62;2.40;1.60;;;28.20;29.20;;;;;;2248895;61;20364;-50
2023/09/20 09:40:07;0.00;0.00;0.62;0.00;0.00;0.62;3.23;2.00;;;28.20;29.20;;;;;;2248736;61;20447;-52
2023/09/20 09:42:52;0.00;0.00;0.62;0.00;0.00;0.62;3.80;1.60;;;28.20;29.20;;;;;;2248815;61;20391;-51
2023/09/20 09:45:38;0.00;0.00;0.62;0.00;0.00;0.62;2.33;1.43;;;28.20;29.20;;;;;;2248733;61;20447;-55
2023/09/20 09:48:27;0.00;0.00;0.62;0.00;0.00;0.62;2.23;1.50;;;28.30;29.30;;;;;;2248244;61;20438;-58
2023/09/20 09:51:14;0.00;0.00;0.62;0.00;0.00;0.62;1.90;1.40;;;28.30;29.30;;;;;;2248831;61;20387;-53
2023/09/20 09:54:02;0.00;0.00;0.62;0.00;0.00;0.62;2.60;1.53;;;28.30;29.30;;;;;;2248701;61;20592;-49
2023/09/20 09:56:48;0.00;0.00;0.62;0.00;0.00;0.62;1.90;1.47;;;28.30;29.30;;;;;;2248727;61;20411;-53
2023/09/20 09:59:32;0.00;0.00;0.62;0.00;0.00;0.62;2.30;1.70;;;28.30;29.30;;;;;;2245011;61;20423;-52
2023/09/20 10:02:19;0.00;0.00;0.62;0.00;0.00;0.62;3.50;1.50;;;28.30;29.30;;;;;;2248742;61;20379;-55
2023/09/20 10:05:10;0.00;0.00;0.62;0.00;0.00;0.62;2.87;1.50;;;28.30;29.30;;;;;;2248633;61;20427;-62
2023/09/20 10:08:01;0.00;0.00;0.62;0.00;0.00;0.62;2.70;2.10;;;28.30;29.30;;;;;;2248304;61;20942;-55
2023/09/20 10:10:47;0.00;0.00;0.62;0.00;0.00;0.62;2.73;1.80;;;28.30;29.30;;;;;;2248412;61;21102;-48
2023/09/20 10:13:34;0.00;0.00;0.62;0.00;0.00;0.62;4.47;1.47;;;28.40;29.40;;;;;;2248604;61;20364;-50
2023/09/20 10:16:18;0.00;0.00;0.62;0.00;0.00;0.62;3.33;1.70;;;28.40;29.40;;;;;;2248663;61;20417;-50
2023/09/20 10:19:08;0.00;0.00;0.62;0.00;0.00;0.62;2.30;1.70;;;28.40;29.40;;;;;;2248257;61;20491;-50
2023/09/20 10:22:06;0.00;0.00;0.62;0.00;0.00;0.62;1.90;1.43;;;28.40;29.40;;;;;;2248583;61;20419;-52
2023/09/20 10:24:58;0.00;0.00;0.62;0.00;0.00;0.62;2.60;1.30;;;28.40;29.40;;;;;;2248391;61;20946;-54
2023/09/20 10:27:44;0.00;0.00;0.62;0.00;0.00;0.62;1.90;1.43;;;28.40;29.40;;;;;;2248685;61;20368;-54
2023/09/20 10:30:34;0.00;0.00;0.62;0.00;0.00;0.62;2.50;1.60;;;28.40;29.40;;;;;;2248664;61;20396;-50
2023/09/20 10:33:52;0.00;0.00;0.62;0.00;0.00;0.62;2.77;1.60;;;28.40;29.40;;;;;;2248356;61;20415;-50
2023/09/20 10:36:51;0.00;0.00;0.62;0.00;0.00;0.62;2.67;1.80;;;28.40;29.40;;;;;;2248710;61;20816;-51
2023/09/20 10:39:38;0.00;0.00;0.62;0.00;0.00;0.62;2.00;1.40;;;28.50;29.50;;;;;;2247819;61;20810;-55
2023/09/20 10:42:23;0.00;0.00;0.62;0.00;0.00;0.62;2.50;1.60;;;28.50;29.50;;;;;;2248721;61;20368;-51
2023/09/20 10:45:17;0.00;0.00;0.62;0.00;0.00;0.62;2.70;1.77;;;28.50;29.50;;;;;;2248784;61;20460;-51
2023/09/20 10:48:05;0.00;0.00;0.62;0.00;0.00;0.62;3.20;1.67;;;28.50;29.60;;;;;;2248021;61;20426;-50
2023/09/20 10:50:57;0.00;0.00;0.62;0.00;0.00;0.62;1.70;1.20;;;28.50;29.60;;;;;;2248524;61;20995;-55
2023/09/20 10:53:56;0.00;0.00;0.62;0.00;0.00;0.62;2.20;1.30;;;28.50;29.60;;;;;;2248661;61;20363;-52
2023/09/20 10:57:02;0.00;0.00;0.62;0.00;0.00;0.62;1.90;1.30;;;28.50;29.60;;;;;;2248221;61;20440;-53
2023/09/20 10:59:47;0.00;0.00;0.62;0.00;0.00;0.62;1.93;1.40;;;28.50;29.60;;;;;;2248113;61;20384;-53
2023/09/20 11:02:33;0.00;0.00;0.62;0.00;0.00;0.62;2.07;1.30;;;28.50;29.60;;;;;;2248074;61;20371;-51
2023/09/20 11:05:18;0.00;0.00;0.62;0.00;0.00;0.62;2.00;1.37;;;28.60;29.70;;;;;;2248552;61;20368;-53
2023/09/20 11:08:08;0.00;0.00;0.62;0.00;0.00;0.62;1.90;1.20;;;28.60;29.70;;;;;;2247972;61;20418;-55
2023/09/20 11:10:53;0.00;0.00;0.62;0.00;0.00;0.62;2.37;1.20;;;28.60;29.70;;;;;;2248402;61;20383;-55
2023/09/20 11:13:41;0.00;0.00;0.62;0.00;0.00;0.62;2.07;1.27;;;28.60;29.70;;;;;;2248484;61;20953;-48
2023/09/20 11:16:27;0.00;0.00;0.62;0.00;0.00;0.62;2.10;1.30;;;28.60;29.70;;;;;;2245521;61;20384;-52
2023/09/20 11:19:14;0.00;0.00;0.62;0.00;0.00;0.62;2.43;1.40;;;28.60;29.70;;;;;;2247923;61;20791;-52
2023/09/20 11:21:59;0.00;0.00;0.62;0.00;0.00;0.62;2.07;1.30;;;28.70;29.80;;;;;;2248519;61;20371;-54
2023/09/20 11:24:43;0.00;0.00;0.62;0.00;0.00;0.62;2.60;1.87;;;28.70;29.80;;;;;;2248159;61;20387;-54
2023/09/20 11:27:28;0.00;0.00;0.62;0.00;0.00;0.62;3.80;1.93;;;28.70;30.40;;;;;;2248453;61;20831;-52
2023/09/20 11:30:13;0.00;0.00;0.62;0.00;0.00;0.62;2.97;1.73;;;28.70;29.80;;;;;;2247814;61;20419;-54
2023/09/20 11:33:01;0.00;0.00;0.62;0.00;0.00;0.62;2.00;1.30;;;28.80;29.90;;;;;;2248136;61;20893;-51
2023/09/20 11:35:47;0.00;0.00;0.62;0.00;0.00;0.62;2.57;1.40;;;28.80;29.90;;;;;;2248382;61;20396;-56
2023/09/20 11:38:32;0.00;0.00;0.62;0.00;0.00;0.62;4.30;1.67;;;28.80;29.90;;;;;;2248149;61;20441;-53